createdAt,value
2018-07-03T00:01:06.128Z,35.50
2018-07-03T00:03:33.791Z,35.29
2018-07-03T00:06:01.509Z,35.48
2018-07-03T00:08:29.936Z,35.67
2018-07-03T00:10:57.619Z,35.86
2018-07-03T00:13:25.302Z,35.92
2018-07-03T00:15:53.223Z,36.32
2018-07-03T00:18:23.705Z,35.66
2018-07-03T00:20:51.430Z,36.14
2018-07-03T00:23:19.360Z,36.12
2018-07-03T00:25:47.076Z,36.31
2018-07-03T00:28:14.727Z,36.76
2018-07-03T00:30:42.389Z,36.92
2018-07-03T00:33:10.491Z,36.09
2018-07-03T00:35:39.994Z,36.50
2018-07-03T00:38:07.656Z,36.67
2018-07-03T00:40:35.312Z,36.75
2018-07-03T00:43:03.288Z,37.01
2018-07-03T00:45:31.732Z,36.44
2018-07-03T00:47:59.367Z,36.24
2018-07-03T00:50:27.856Z,36.36
2018-07-03T00:52:55.788Z,36.78
2018-07-03T00:55:23.444Z,36.81
2018-07-03T00:57:51.112Z,37.21
2018-07-03T01:00:18.783Z,37.19
2018-07-03T01:02:46.739Z,37.33
2018-07-03T01:05:14.478Z,36.63
2018-07-03T01:07:42.136Z,37.15
2018-07-03T01:10:10.080Z,36.93
2018-07-03T01:12:37.731Z,37.08
2018-07-03T01:15:05.396Z,37.67
2018-07-03T01:17:34.397Z,37.81
2018-07-03T01:20:02.064Z,37.43
2018-07-03T01:22:29.708Z,38.07
2018-07-03T01:24:57.644Z,37.95
2018-07-03T01:27:25.300Z,38.36
2018-07-03T01:29:52.970Z,38.02
2018-07-03T01:32:21.331Z,38.40
2018-07-03T01:34:49.305Z,38.71
2018-07-03T01:37:17.910Z,38.58
2018-07-03T01:39:45.592Z,39.03
2018-07-03T01:42:13.264Z,38.91
2018-07-03T01:44:41.429Z,39.01
2018-07-03T01:47:09.112Z,38.91
2018-07-03T01:49:36.787Z,39.49
2018-07-03T01:52:04.431Z,39.73
2018-07-03T01:54:32.339Z,40.22
2018-07-03T01:57:00.076Z,40.22
2018-07-03T01:59:27.736Z,40.40
2018-07-03T02:01:55.397Z,40.42
2018-07-03T02:04:23.347Z,40.44
2018-07-03T02:06:51.023Z,40.17
2018-07-03T02:09:19.497Z,40.39
2018-07-03T02:11:47.144Z,40.36
2018-07-03T02:14:15.107Z,40.10
2018-07-03T02:16:42.791Z,39.94
2018-07-03T02:19:10.464Z,40.42
2018-07-03T02:21:38.156Z,40.51
2018-07-03T02:24:06.228Z,40.62
2018-07-03T02:26:33.901Z,40.46
2018-07-03T02:29:01.607Z,40.60
2018-07-03T02:31:29.284Z,40.46
2018-07-03T02:33:57.220Z,40.47
2018-07-03T02:36:25.144Z,41.54
2018-07-03T02:38:52.781Z,41.00
2018-07-03T02:41:20.443Z,40.65
2018-07-03T02:43:48.493Z,41.47
2018-07-03T02:46:16.196Z,40.70
2018-07-03T02:48:43.855Z,41.04
2018-07-03T02:51:11.529Z,40.90
2018-07-03T02:53:39.520Z,41.52
2018-07-03T02:56:07.179Z,41.19
2018-07-03T02:58:34.843Z,42.01
2018-07-03T03:01:02.536Z,41.67
2018-07-03T03:03:30.456Z,41.69
2018-07-03T03:05:58.095Z,41.97
2018-07-03T03:08:26.049Z,41.89
2018-07-03T03:10:54.696Z,41.92
2018-07-03T03:13:22.378Z,41.94
2018-07-03T03:15:50.039Z,42.09
2018-07-03T03:18:17.701Z,41.83
2018-07-03T03:20:45.623Z,41.71
2018-07-03T03:23:13.350Z,41.68
2018-07-03T03:25:40.999Z,42.01
2018-07-03T03:28:08.712Z,42.36
2018-07-03T03:30:36.672Z,41.82
2018-07-03T03:33:04.374Z,41.98
2018-07-03T03:35:32.029Z,41.88
2018-07-03T03:38:00.031Z,41.71
2018-07-03T03:40:27.823Z,41.31
2018-07-03T03:42:55.488Z,41.68
2018-07-03T03:45:23.143Z,41.36
2018-07-03T03:47:51.147Z,41.46
2018-07-03T03:50:18.783Z,41.39
2018-07-03T03:52:46.443Z,41.35
2018-07-03T03:55:14.836Z,41.36
2018-07-03T03:57:42.825Z,41.64
2018-07-03T04:00:11.355Z,41.21
2018-07-03T04:02:39.244Z,40.95
2018-07-03T04:05:07.877Z,41.42
2018-07-03T04:07:35.972Z,41.86
2018-07-03T04:10:03.617Z,41.34
2018-07-03T04:12:31.284Z,41.58
2018-07-03T04:14:59.079Z,42.04
2018-07-03T04:17:28.196Z,42.52
2018-07-03T04:19:55.847Z,42.94
2018-07-03T04:22:23.496Z,42.32
2018-07-03T04:24:51.154Z,42.18
2018-07-03T04:27:19.103Z,42.57
2018-07-03T04:29:46.778Z,41.89
2018-07-03T04:32:15.439Z,42.38
2018-07-03T04:34:43.382Z,41.54
2018-07-03T04:37:11.055Z,41.92
2018-07-03T04:39:38.712Z,41.63
2018-07-03T04:42:06.648Z,41.47
2018-07-03T04:44:34.307Z,41.23
2018-07-03T04:47:02.005Z,40.86
2018-07-03T04:49:29.940Z,40.71
2018-07-03T04:51:57.582Z,40.75
2018-07-03T04:54:27.186Z,41.09
2018-07-03T04:56:55.135Z,41.16
2018-07-03T04:59:22.775Z,41.40
2018-07-03T05:01:50.437Z,41.28
2018-07-03T05:04:18.499Z,40.81
2018-07-03T05:06:46.179Z,40.68
2018-07-03T05:09:13.907Z,40.75
2018-07-03T05:11:41.923Z,41.09
2018-07-03T05:14:10.123Z,40.89
2018-07-03T05:16:37.943Z,40.74
2018-07-03T05:19:05.893Z,40.51
2018-07-03T05:21:33.544Z,40.07
2018-07-03T05:24:01.228Z,40.07
2018-07-03T05:26:29.160Z,39.62
2018-07-03T05:28:59.835Z,40.04
2018-07-03T05:31:27.532Z,39.30
2018-07-03T05:33:55.697Z,39.55
2018-07-03T05:36:23.199Z,39.52
2018-07-03T05:38:50.849Z,39.01
2018-07-03T05:41:19.204Z,39.50
2018-07-03T05:43:47.566Z,38.70
2018-07-03T05:46:15.219Z,39.10
2018-07-03T05:48:43.175Z,39.16
2018-07-03T05:51:10.829Z,38.05
2018-07-03T05:53:38.476Z,38.39
2018-07-03T05:56:06.403Z,37.71
2018-07-03T05:58:34.096Z,37.74
2018-07-03T06:01:01.765Z,37.27
2018-07-03T06:03:30.703Z,37.54
2018-07-03T06:05:58.372Z,37.07
2018-07-03T06:08:26.060Z,37.36
2018-07-03T06:10:53.747Z,37.41
2018-07-03T06:13:21.470Z,36.73
2018-07-03T06:15:49.407Z,36.68
2018-07-03T06:18:17.909Z,36.58
2018-07-03T06:20:45.607Z,36.38
2018-07-03T06:23:13.582Z,36.69
2018-07-03T06:25:41.229Z,37.17
2018-07-03T06:28:09.721Z,37.14
2018-07-03T06:30:38.593Z,36.33
2018-07-03T06:33:06.254Z,36.68
2018-07-03T06:35:33.920Z,36.06
2018-07-03T06:38:01.872Z,36.36
2018-07-03T06:40:29.537Z,35.65
2018-07-03T06:42:57.189Z,35.07
2018-07-03T06:45:25.136Z,35.52
2018-07-03T06:47:52.831Z,35.39
2018-07-03T06:50:20.491Z,35.83
2018-07-03T06:52:48.625Z,34.96
2018-07-03T06:55:16.196Z,34.68
2018-07-03T06:57:46.498Z,34.31
2018-07-03T07:00:15.571Z,34.97
2018-07-03T07:02:44.329Z,34.92
2018-07-03T07:05:12.004Z,34.13
2018-07-03T07:07:39.935Z,33.83
2018-07-03T07:10:08.805Z,33.90
2018-07-03T07:12:36.472Z,34.04
2018-07-03T07:15:04.506Z,33.56
2018-07-03T07:17:32.168Z,33.68
2018-07-03T07:20:00.520Z,33.93
2018-07-03T07:22:28.521Z,34.04
2018-07-03T07:24:56.171Z,33.99
2018-07-03T07:27:23.840Z,33.71
2018-07-03T07:29:51.771Z,32.97
2018-07-03T07:32:19.428Z,33.60
2018-07-03T07:34:47.076Z,32.79
2018-07-03T07:37:15.012Z,32.63
2018-07-03T07:39:42.659Z,32.58
2018-07-03T07:42:10.331Z,32.66
2018-07-03T07:44:38.435Z,32.32
2018-07-03T07:47:07.414Z,33.04
2018-07-03T07:49:36.172Z,32.36
2018-07-03T07:52:04.128Z,31.96
2018-07-03T07:54:32.590Z,32.46
2018-07-03T07:57:00.256Z,31.61
2018-07-03T07:59:28.220Z,31.89
2018-07-03T08:01:55.901Z,32.23
2018-07-03T08:04:23.553Z,31.24
2018-07-03T08:06:51.666Z,31.44
2018-07-03T08:09:19.580Z,31.72
2018-07-03T08:11:47.243Z,31.01
2018-07-03T08:14:15.155Z,30.87
2018-07-03T08:16:43.767Z,30.69
2018-07-03T08:19:11.468Z,31.13
2018-07-03T08:21:39.451Z,30.40
2018-07-03T08:24:07.165Z,30.93
2018-07-03T08:26:34.839Z,30.82
2018-07-03T08:29:02.788Z,30.29
2018-07-03T08:31:30.459Z,30.23
2018-07-03T08:33:58.599Z,30.10
2018-07-03T08:36:26.548Z,30.06
2018-07-03T08:38:54.220Z,29.73
2018-07-03T08:41:21.879Z,29.81
2018-07-03T08:43:50.856Z,30.13
2018-07-03T08:46:18.545Z,29.69
2018-07-03T08:48:47.396Z,29.29
2018-07-03T08:51:15.335Z,29.72
2018-07-03T08:53:45.416Z,29.19
2018-07-03T08:56:13.899Z,29.20
2018-07-03T08:58:41.825Z,29.62
2018-07-03T09:01:10.209Z,29.48
2018-07-03T09:03:39.268Z,29.29
2018-07-03T09:06:07.215Z,29.44
2018-07-03T09:08:35.704Z,28.89
2018-07-03T09:11:03.352Z,28.33
2018-07-03T09:13:32.328Z,28.00
2018-07-03T09:16:01.393Z,28.51
2018-07-03T09:18:29.056Z,28.24
2018-07-03T09:20:57.682Z,27.89
2018-07-03T09:23:25.350Z,27.50
2018-07-03T09:25:53.091Z,27.34
2018-07-03T09:28:21.836Z,27.11
2018-07-03T09:30:49.500Z,27.70
2018-07-03T09:33:17.200Z,26.92
2018-07-03T09:35:45.227Z,26.64
2018-07-03T09:38:14.684Z,26.50
2018-07-03T09:40:42.377Z,26.39
2018-07-03T09:43:10.357Z,26.65
2018-07-03T09:45:39.419Z,27.04
2018-07-03T09:48:09.945Z,26.96
2018-07-03T09:50:41.554Z,26.97
2018-07-03T09:53:11.778Z,25.87
2018-07-03T09:55:40.393Z,26.68
2018-07-03T09:58:10.253Z,26.55
2018-07-03T10:00:43.997Z,25.94
2018-07-03T10:03:11.705Z,25.75
2018-07-03T10:05:39.684Z,25.27
2018-07-03T10:08:07.344Z,26.12
2018-07-03T10:10:36.359Z,25.83
2018-07-03T10:13:05.187Z,25.29
2018-07-03T10:15:35.668Z,24.47
2018-07-03T10:18:03.639Z,24.09
2018-07-03T10:20:32.801Z,24.74
2018-07-03T10:23:02.309Z,24.28
2018-07-03T10:25:30.066Z,23.44
2018-07-03T10:27:58.040Z,22.95
2018-07-03T10:30:25.697Z,23.39
2018-07-03T10:32:57.532Z,23.06
2018-07-03T10:35:26.390Z,23.39
2018-07-03T10:37:57.082Z,23.20
2018-07-03T10:40:25.477Z,22.90
2018-07-03T10:42:54.412Z,21.68
2018-07-03T10:45:24.295Z,21.62
2018-07-03T10:47:53.171Z,21.88
2018-07-03T10:50:21.277Z,21.97
2018-07-03T10:52:53.287Z,20.89
2018-07-03T10:55:23.359Z,21.74
2018-07-03T10:57:51.456Z,20.87
2018-07-03T11:06:22.464Z,21.88
2018-07-03T11:08:50.123Z,20.72
2018-07-03T11:11:19.216Z,20.74
2018-07-03T11:13:49.461Z,20.92
2018-07-03T11:16:23.265Z,21.10
2018-07-03T11:18:51.261Z,21.01
2018-07-03T11:21:19.900Z,20.95
2018-07-03T11:23:48.445Z,20.73
2018-07-03T11:26:18.312Z,19.45
2018-07-03T11:28:46.642Z,20.32
2018-07-03T11:31:14.306Z,19.64
2018-07-03T11:33:43.071Z,19.81
2018-07-03T11:36:12.149Z,20.10
2018-07-03T11:38:39.844Z,20.21
2018-07-03T11:41:08.444Z,19.54
2018-07-03T11:43:36.144Z,19.33
2018-07-03T11:46:04.170Z,19.42
2018-07-03T11:48:32.957Z,19.17
2018-07-03T11:51:00.615Z,19.42
2018-07-03T11:53:28.304Z,18.63
2018-07-03T11:55:56.252Z,18.81
2018-07-03T11:58:24.870Z,18.70
2018-07-03T12:00:52.524Z,19.14
2018-07-03T12:03:20.462Z,17.92
2018-07-03T12:05:48.156Z,17.69
2018-07-03T12:08:20.517Z,18.07
2018-07-03T12:10:48.519Z,17.91
2018-07-03T12:13:16.205Z,17.60
2018-07-03T12:15:58.319Z,18.13
2018-07-03T12:18:31.322Z,17.49
2018-07-03T12:21:00.949Z,17.24
2018-07-03T12:23:29.408Z,18.05
2018-07-03T12:25:59.397Z,18.13
2018-07-03T12:28:27.961Z,17.28
2018-07-03T12:30:56.470Z,17.94
2018-07-03T12:33:24.722Z,18.02
2018-07-03T12:35:52.373Z,16.87
2018-07-03T12:38:20.356Z,18.05
2018-07-03T12:40:48.700Z,16.83
2018-07-03T12:43:16.351Z,16.76
2018-07-03T12:45:45.969Z,16.67
2018-07-03T12:48:17.197Z,17.70
2018-07-03T12:50:45.685Z,17.53
2018-07-03T12:53:13.864Z,16.53
2018-07-03T12:55:42.544Z,17.29
2018-07-03T12:58:11.523Z,16.55
2018-07-03T13:00:41.244Z,17.08
2018-07-03T13:03:08.951Z,17.14
2018-07-03T13:05:36.627Z,16.66
2018-07-03T13:08:05.460Z,17.18
2018-07-03T13:10:33.175Z,16.53
2018-07-03T13:13:01.364Z,17.18
2018-07-03T13:15:29.389Z,16.59
2018-07-03T13:17:59.460Z,16.98
2018-07-03T13:20:27.611Z,16.58
2018-07-03T13:22:55.607Z,15.97
2018-07-03T13:25:25.259Z,15.78
2018-07-03T13:27:52.956Z,16.26
2018-07-03T13:30:20.898Z,16.22
2018-07-03T13:32:48.555Z,16.37
2018-07-03T13:35:16.260Z,15.25
2018-07-03T13:37:44.236Z,16.28
2018-07-03T13:40:13.408Z,15.42
2018-07-03T13:42:42.277Z,15.88
2018-07-03T13:45:15.155Z,15.22
2018-07-03T13:47:43.692Z,15.76
2018-07-03T13:50:11.897Z,15.05
2018-07-03T13:52:40.812Z,15.56
2018-07-03T13:55:10.270Z,14.91
2018-07-03T13:57:37.936Z,15.35
2018-07-03T14:00:06.532Z,15.14
2018-07-03T14:02:34.247Z,15.50
2018-07-03T14:05:05.683Z,15.41
2018-07-03T14:07:33.629Z,15.14
2018-07-03T14:10:01.373Z,14.32
2018-07-03T14:12:29.633Z,14.92
2018-07-03T14:14:57.692Z,14.70
2018-07-03T14:17:28.322Z,14.67
2018-07-03T14:20:00.101Z,14.19
2018-07-03T14:22:29.024Z,13.85
2018-07-03T14:24:56.728Z,14.41
2018-07-03T14:27:24.440Z,14.01
2018-07-03T14:29:52.463Z,14.57
2018-07-03T14:32:20.196Z,13.93
2018-07-03T14:37:22.771Z,14.06
2018-07-03T14:39:55.829Z,13.97
2018-07-03T14:42:23.493Z,14.55
2018-07-03T14:44:52.303Z,13.62
2018-07-03T14:47:20.625Z,14.23
2018-07-03T14:49:48.811Z,13.59
2018-07-03T14:52:16.971Z,13.67
2018-07-03T14:54:44.631Z,14.01
2018-07-03T14:57:13.188Z,13.87
2018-07-03T14:59:41.743Z,13.78
2018-07-03T15:02:09.680Z,13.77
2018-07-03T15:04:37.410Z,14.36
2018-07-03T15:07:07.548Z,13.75
2018-07-03T15:09:35.217Z,13.61
2018-07-03T15:12:02.920Z,13.63
2018-07-03T15:14:31.180Z,13.57
2018-07-03T15:16:59.444Z,13.56
2018-07-03T15:19:32.157Z,13.46
2018-07-03T15:22:01.513Z,13.02
2018-07-03T15:24:34.968Z,13.00
2018-07-03T15:27:03.289Z,12.97
2018-07-03T15:29:32.204Z,13.40
2018-07-03T15:32:00.938Z,12.63
2018-07-03T15:34:29.217Z,13.28
2018-07-03T15:36:57.151Z,13.83
2018-07-03T15:39:25.521Z,13.20
2018-07-03T15:41:55.124Z,13.57
2018-07-03T15:44:24.060Z,13.63
2018-07-03T15:46:52.361Z,14.09
2018-07-03T15:49:20.736Z,14.54
2018-07-03T15:51:49.900Z,14.50
2018-07-03T15:54:18.533Z,14.54
2018-07-03T15:56:46.225Z,13.96
2018-07-03T15:59:14.705Z,14.02
2018-07-03T16:01:42.486Z,14.16
2018-07-03T16:04:10.580Z,14.70
2018-07-03T16:06:38.509Z,13.76
2018-07-03T16:09:07.353Z,14.50
2018-07-03T16:11:41.406Z,13.95
2018-07-03T16:14:09.540Z,14.17
2018-07-03T16:16:38.052Z,14.15
2018-07-03T16:19:11.101Z,14.27
2018-07-03T16:21:39.374Z,14.18
2018-07-03T16:24:07.291Z,15.04
2018-07-03T16:26:36.833Z,14.41
2018-07-03T16:29:05.092Z,15.09
2018-07-03T16:31:32.752Z,15.43
2018-07-03T16:34:03.624Z,16.34
2018-07-03T16:36:33.235Z,18.31
2018-07-03T16:39:02.340Z,18.15
2018-07-03T16:41:30.617Z,19.42
2018-07-03T16:43:58.304Z,19.21
2018-07-03T16:46:26.778Z,20.22
2018-07-03T16:48:54.711Z,19.59
2018-07-03T16:51:23.421Z,18.73
2018-07-03T16:53:51.093Z,17.86
2018-07-03T16:56:19.120Z,18.70
2018-07-03T16:58:48.641Z,17.91
2018-07-03T17:01:16.468Z,18.92
2018-07-03T17:03:44.459Z,18.55
2018-07-03T17:06:12.968Z,19.20
2018-07-03T17:08:40.653Z,19.93
2018-07-03T17:11:08.624Z,20.14
2018-07-03T17:13:36.385Z,20.59
2018-07-03T17:16:05.524Z,21.36
2018-07-03T17:18:34.349Z,21.11
2018-07-03T17:21:02.872Z,21.74
2018-07-03T17:23:30.707Z,22.21
2018-07-03T17:25:59.284Z,21.57
2018-07-03T17:28:28.461Z,22.48
2018-07-03T17:30:56.943Z,21.89
2018-07-03T17:33:25.493Z,21.92
2018-07-03T17:35:53.196Z,22.66
2018-07-03T17:38:21.582Z,22.57
2018-07-03T17:40:51.435Z,23.31
2018-07-03T17:43:19.901Z,22.78
2018-07-03T17:45:49.557Z,22.26
2018-07-03T17:48:18.407Z,22.98
2018-07-03T17:50:47.188Z,22.70
2018-07-03T17:53:14.831Z,22.62
2018-07-03T17:55:44.591Z,23.01
2018-07-03T17:58:13.312Z,22.31
2018-07-03T18:00:42.444Z,22.56
2018-07-03T18:03:10.579Z,22.52
2018-07-03T18:05:39.566Z,22.89
2018-07-03T18:08:11.387Z,22.88
2018-07-03T18:10:40.421Z,23.35
2018-07-03T18:13:09.704Z,23.15
2018-07-03T18:15:38.607Z,22.36
2018-07-03T18:18:07.761Z,22.91
2018-07-03T18:20:35.440Z,23.13
2018-07-03T18:23:03.768Z,23.54
2018-07-03T18:25:32.540Z,23.01
2018-07-03T18:28:02.535Z,23.66
2018-07-03T18:30:30.211Z,22.95
2018-07-03T18:33:01.015Z,23.42
2018-07-03T18:35:30.276Z,23.77
2018-07-03T18:38:00.124Z,23.65
2018-07-03T18:40:28.227Z,23.05
2018-07-03T18:42:59.491Z,23.79
2018-07-03T18:45:27.180Z,23.91
2018-07-03T18:47:56.656Z,24.01
2018-07-03T18:50:25.388Z,23.27
2018-07-03T18:52:53.333Z,23.51
2018-07-03T18:55:21.292Z,24.05
2018-07-03T18:57:48.977Z,23.52
2018-07-03T19:00:16.712Z,23.91
2018-07-03T19:02:45.299Z,23.95
2018-07-03T19:05:13.816Z,23.57
2018-07-03T19:07:43.391Z,24.75
2018-07-03T19:10:12.298Z,23.92
2018-07-03T19:12:41.624Z,24.23
2018-07-03T19:15:10.250Z,24.62
2018-07-03T19:17:38.166Z,25.03
2018-07-03T19:20:06.452Z,24.73
2018-07-03T19:22:34.210Z,25.36
2018-07-03T19:25:02.956Z,24.87
2018-07-03T19:27:30.741Z,24.82
2018-07-03T19:29:58.647Z,25.20
2018-07-03T19:32:27.372Z,25.00
2018-07-03T19:34:55.712Z,25.38
2018-07-03T19:37:24.197Z,25.75
2018-07-03T19:39:53.599Z,25.61
2018-07-03T19:42:23.424Z,25.42
2018-07-03T19:44:51.893Z,25.62
2018-07-03T19:47:19.837Z,25.57
2018-07-03T19:49:48.433Z,26.35
2018-07-03T19:52:17.264Z,25.94
2018-07-03T19:57:27.689Z,26.90
2018-07-03T19:59:55.637Z,26.76
2018-07-03T20:02:23.684Z,27.05
2018-07-03T20:04:51.928Z,27.07
2018-07-03T20:07:20.973Z,26.70
2018-07-03T20:09:50.638Z,26.84
2018-07-03T20:12:19.928Z,27.51
2018-07-03T20:14:48.586Z,27.62
2018-07-03T20:17:16.924Z,27.32
2018-07-03T20:19:45.956Z,27.31
2018-07-03T20:22:13.637Z,28.11
2018-07-03T20:24:42.170Z,27.47
2018-07-03T20:27:10.107Z,27.82
2018-07-03T20:29:39.940Z,27.74
2018-07-03T20:32:07.649Z,27.77
2018-07-03T20:34:35.618Z,28.11
2018-07-03T20:37:03.289Z,28.72
2018-07-03T20:39:34.502Z,28.47
2018-07-03T20:42:02.484Z,29.18
2018-07-03T20:44:30.385Z,28.73
2018-07-03T20:46:59.068Z,28.96
2018-07-03T20:49:27.214Z,29.45
2018-07-03T20:51:54.920Z,29.79
2018-07-03T20:54:27.572Z,29.78
2018-07-03T20:56:55.529Z,29.69
2018-07-03T20:59:24.204Z,29.99
2018-07-03T21:01:52.425Z,29.83
2018-07-03T21:04:21.255Z,30.45
2018-07-03T21:06:48.971Z,30.15
2018-07-03T21:09:19.589Z,30.69
2018-07-03T21:11:47.778Z,30.86
2018-07-03T21:14:15.448Z,30.22
2018-07-03T21:16:43.128Z,30.66
2018-07-03T21:19:11.795Z,30.87
2018-07-03T21:21:39.492Z,30.46
2018-07-03T21:24:07.685Z,30.65
2018-07-03T21:26:36.624Z,31.31
2018-07-03T21:29:05.499Z,30.58
2018-07-03T21:31:33.164Z,30.79
2018-07-03T21:34:02.445Z,30.76
2018-07-03T21:39:11.330Z,31.02
2018-07-03T21:41:40.229Z,31.18
2018-07-03T21:44:07.936Z,32.14
2018-07-03T21:46:35.613Z,32.16
2018-07-03T21:49:03.576Z,32.33
2018-07-03T21:51:32.052Z,31.88
2018-07-03T21:53:59.749Z,32.48
2018-07-03T21:56:27.684Z,32.64
2018-07-03T21:58:55.393Z,32.08
2018-07-03T22:01:23.057Z,33.03
2018-07-03T22:03:52.647Z,32.77
2018-07-03T22:06:20.337Z,32.59
2018-07-03T22:08:49.564Z,32.98
2018-07-03T22:11:22.940Z,32.70
2018-07-03T22:13:51.587Z,32.72
2018-07-03T22:16:19.290Z,32.95
2018-07-03T22:18:47.274Z,32.73
2018-07-03T22:21:15.250Z,32.79
2018-07-03T22:23:43.572Z,32.64
2018-07-03T22:26:12.565Z,33.37
2018-07-03T22:28:40.268Z,32.90
2018-07-03T22:31:08.282Z,32.83
2018-07-03T22:33:36.208Z,33.23
2018-07-03T22:36:03.896Z,33.54
2018-07-03T22:38:31.628Z,33.69
2018-07-03T22:40:59.569Z,33.43
2018-07-03T22:43:27.233Z,33.59
2018-07-03T22:45:57.070Z,34.23
2018-07-03T22:48:25.269Z,34.69
2018-07-03T22:50:54.001Z,34.66
2018-07-03T22:53:21.700Z,34.72
2018-07-03T22:55:50.217Z,34.72
2018-07-03T22:58:19.046Z,34.78
2018-07-03T23:00:46.780Z,35.30
2018-07-03T23:03:14.736Z,34.75
2018-07-03T23:05:42.465Z,34.94
2018-07-03T23:08:10.421Z,35.24
2018-07-03T23:10:38.458Z,34.96
2018-07-03T23:13:06.368Z,35.11
2018-07-03T23:15:35.728Z,35.48
2018-07-03T23:18:03.946Z,35.29
2018-07-03T23:20:31.958Z,34.70
2018-07-03T23:23:00.376Z,35.00
2018-07-03T23:25:28.055Z,35.36
2018-07-03T23:27:55.770Z,35.66
2018-07-03T23:30:23.717Z,35.97
2018-07-03T23:32:51.389Z,35.55
2018-07-03T23:35:19.052Z,36.18
2018-07-03T23:37:46.716Z,36.18
2018-07-03T23:40:14.681Z,35.64
2018-07-03T23:42:42.872Z,35.75
2018-07-03T23:45:11.675Z,36.09
2018-07-03T23:47:40.746Z,36.30
2018-07-03T23:50:08.697Z,36.63
2018-07-03T23:52:36.361Z,36.04
2018-07-03T23:55:04.024Z,36.68
2018-07-03T23:57:31.686Z,36.44
2018-07-03T23:59:59.638Z,36.18
